Time;durP1;ratioP1;P1;durP2;ratioP2;P2;SDS_P1;SDS_P2;PMS_P1;PMS_P2;Temp;Humidity;BMP_temperature;BMP_pressure;BME280_temperature;BME280_humidity;BME280_pressure;Samples;Min_cycle;Max_cycle;Signal;HPM_P1;HPM_P2
2022/12/20 00:01:44;;;;;;;2.63;1.52;;;9.50;99.90;;;;;;4145354;28;20052;-72
2022/12/20 00:03:44;;;;;;;3.55;2.10;;;9.60;99.90;;;;;;4162967;28;20034;-73
2022/12/20 00:05:46;;;;;;;3.53;1.67;;;9.60;99.90;;;;;;4148497;28;22057;-72
2022/12/20 00:07:46;;;;;;;3.22;1.75;;;9.70;99.90;;;;;;4146696;28;20487;-72
2022/12/20 00:09:47;;;;;;;3.15;1.67;;;9.70;99.90;;;;;;4152211;28;20054;-72
2022/12/20 00:11:47;;;;;;;2.90;1.20;;;9.80;99.90;;;;;;4146423;28;20042;-72
2022/12/20 00:13:48;;;;;;;2.65;1.25;;;9.90;99.90;;;;;;4145639;28;20117;-72
2022/12/20 00:15:48;;;;;;;2.15;1.50;;;9.90;99.90;;;;;;4145495;28;20384;-72
2022/12/20 00:17:49;;;;;;;2.95;1.45;;;10.00;99.90;;;;;;4151663;28;20606;-72
2022/12/20 00:19:50;;;;;;;3.25;1.52;;;10.10;99.90;;;;;;4159984;28;20046;-72
2022/12/20 00:21:51;;;;;;;3.65;1.55;;;10.10;99.90;;;;;;4146041;28;20557;-72
2022/12/20 00:23:52;;;;;;;1.67;1.40;;;10.20;99.90;;;;;;4146475;28;20042;-72
2022/12/20 00:25:58;;;;;;;2.50;1.50;;;10.20;99.90;;;;;;4144730;28;20037;-70
2022/12/20 00:28:00;;;;;;;4.22;1.50;;;10.30;99.90;;;;;;4143650;28;20046;-71
2022/12/20 00:30:00;;;;;;;3.30;1.58;;;10.30;99.90;;;;;;4146038;28;20046;-72
2022/12/20 00:32:01;;;;;;;2.05;1.30;;;10.40;99.90;;;;;;4145105;28;20057;-72
2022/12/20 00:34:01;;;;;;;2.78;1.45;;;10.40;99.90;;;;;;4147581;28;20402;-72
2022/12/20 00:36:04;;;;;;;2.25;1.63;;;10.40;99.90;;;;;;4144335;28;20132;-72
2022/12/20 00:38:04;;;;;;;2.78;1.40;;;10.50;99.90;;;;;;4145444;28;20042;-72
2022/12/20 00:40:06;;;;;;;4.50;1.70;;;10.50;99.90;;;;;;4145638;28;20061;-73
2022/12/20 00:42:06;;;;;;;3.75;1.60;;;10.50;99.90;;;;;;4145051;28;20425;-72
2022/12/20 00:44:07;;;;;;;2.33;1.40;;;10.50;99.90;;;;;;4145762;28;20040;-72
2022/12/20 00:46:09;;;;;;;2.85;1.35;;;10.60;99.90;;;;;;4143560;28;20038;-72
2022/12/20 00:48:10;;;;;;;2.03;1.33;;;10.60;99.90;;;;;;4144824;28;20038;-72
2022/12/20 00:50:11;;;;;;;3.13;1.38;;;10.60;99.90;;;;;;4145066;28;20045;-73
2022/12/20 00:52:11;;;;;;;1.58;1.30;;;10.70;99.90;;;;;;4146064;28;20041;-72
2022/12/20 00:54:12;;;;;;;3.97;1.50;;;10.60;99.90;;;;;;4146015;28;20599;-72
2022/12/20 00:56:12;;;;;;;2.05;1.20;;;10.70;99.90;;;;;;4149708;28;20471;-72
2022/12/20 00:58:13;;;;;;;2.63;1.45;;;10.70;99.90;;;;;;4155539;28;20777;-72
2022/12/20 01:00:14;;;;;;;1.25;0.93;;;10.80;99.90;;;;;;4161521;28;20120;-73
2022/12/20 01:02:14;;;;;;;2.80;1.40;;;10.80;99.90;;;;;;4148625;28;20476;-72
2022/12/20 01:04:15;;;;;;;5.15;1.30;;;10.80;99.90;;;;;;4158203;28;20044;-72
2022/12/20 01:06:17;;;;;;;1.83;1.30;;;10.80;99.90;;;;;;4155325;28;20047;-72
2022/12/20 01:08:18;;;;;;;2.55;1.17;;;10.80;99.90;;;;;;4152436;28;20037;-72
2022/12/20 01:10:18;;;;;;;3.47;1.60;;;10.90;99.90;;;;;;4144716;28;20044;-72
2022/12/20 01:12:19;;;;;;;3.67;1.60;;;10.90;99.90;;;;;;4144877;28;20042;-72
2022/12/20 01:14:19;;;;;;;4.20;1.35;;;10.90;99.90;;;;;;4144478;28;20034;-72
2022/12/20 01:16:24;;;;;;;1.85;1.30;;;10.90;99.90;;;;;;4143678;28;20120;-72
2022/12/20 01:18:24;;;;;;;1.92;1.15;;;10.90;99.90;;;;;;4143412;28;20037;-71
2022/12/20 01:20:25;;;;;;;2.83;1.30;;;10.90;99.90;;;;;;4144055;28;20072;-71
2022/12/20 01:22:26;;;;;;;1.20;1.02;;;11.00;99.90;;;;;;4144945;28;20030;-71
2022/12/20 01:24:26;;;;;;;2.50;1.58;;;11.00;99.90;;;;;;4144862;28;20037;-70
2022/12/20 01:26:28;;;;;;;2.55;1.60;;;11.00;99.90;;;;;;4143379;28;20036;-71
2022/12/20 01:28:29;;;;;;;4.93;1.30;;;11.00;99.90;;;;;;4144361;28;20042;-72
2022/12/20 01:30:29;;;;;;;4.03;1.30;;;11.00;99.90;;;;;;4143282;28;20395;-71
2022/12/20 01:32:30;;;;;;;2.13;1.20;;;11.00;99.90;;;;;;4144500;28;20034;-71
2022/12/20 01:34:30;;;;;;;1.55;1.05;;;11.00;99.90;;;;;;4144960;28;20053;-71
2022/12/20 01:36:33;;;;;;;2.10;1.10;;;11.00;99.90;;;;;;4143012;28;20050;-72
2022/12/20 01:38:34;;;;;;;2.85;1.15;;;11.00;99.90;;;;;;4143442;28;20042;-71
2022/12/20 01:40:38;;;;;;;2.67;1.27;;;11.00;99.90;;;;;;4143811;28;20069;-72
2022/12/20 01:42:38;;;;;;;2.17;1.20;;;11.00;99.90;;;;;;4144347;28;20064;-72
2022/12/20 01:44:41;;;;;;;2.70;1.52;;;11.10;99.90;;;;;;4144750;28;20116;-71
2022/12/20 01:46:43;;;;;;;2.83;1.30;;;11.10;99.90;;;;;;4141919;28;20434;-72
2022/12/20 01:48:49;;;;;;;1.48;1.10;;;11.10;99.90;;;;;;4144512;28;20064;-72
2022/12/20 01:50:51;;;;;;;3.10;1.30;;;11.10;99.90;;;;;;4143546;28;20038;-72
2022/12/20 01:52:52;;;;;;;2.20;1.17;;;11.10;99.90;;;;;;4172513;28;20051;-72
2022/12/20 01:54:59;;;;;;;2.83;1.42;;;11.10;99.90;;;;;;4144359;28;20038;-72
2022/12/20 01:57:05;;;;;;;2.30;1.38;;;11.10;99.90;;;;;;4141932;28;20131;-72
2022/12/20 01:59:07;;;;;;;2.60;1.70;;;11.10;99.90;;;;;;4144475;28;20038;-72
2022/12/20 02:01:08;;;;;;;1.70;1.13;;;11.10;99.90;;;;;;4149666;28;20041;-72
2022/12/20 02:03:11;;;;;;;3.75;1.60;;;11.10;99.90;;;;;;4134305;28;20606;-71
2022/12/20 02:05:13;;;;;;;2.88;1.35;;;11.10;99.90;;;;;;4128680;28;20042;-73
2022/12/20 02:07:20;;;;;;;1.50;1.20;;;11.20;99.90;;;;;;4136299;28;20088;-72
2022/12/20 02:09:22;;;;;;;1.77;1.33;;;11.20;99.90;;;;;;4144540;28;20044;-72
2022/12/20 02:11:41;;;;;;;2.40;1.50;;;11.20;99.90;;;;;;4143582;28;20053;-72
2022/12/20 02:14:09;;;;;;;2.20;1.38;;;11.20;99.90;;;;;;4142170;28;20088;-72
2022/12/20 02:16:17;;;;;;;3.17;1.30;;;11.20;99.90;;;;;;4165585;28;20120;-72
2022/12/20 02:18:30;;;;;;;2.08;1.30;;;11.20;99.90;;;;;;4137535;28;20046;-71
2022/12/20 02:20:56;;;;;;;2.08;1.30;;;11.20;99.90;;;;;;4141761;28;20121;-71
2022/12/20 02:23:32;;;;;;;2.60;1.30;;;11.20;99.90;;;;;;4143429;28;20036;-71
2022/12/20 02:26:01;;;;;;;4.45;1.50;;;11.20;99.90;;;;;;4130638;28;20035;-71
2022/12/20 02:28:39;;;;;;;1.67;1.23;;;11.20;99.90;;;;;;4142993;28;20042;-72
2022/12/20 02:30:44;;;;;;;3.45;1.42;;;11.20;99.90;;;;;;4126196;28;20105;-72
2022/12/20 02:32:58;;;;;;;2.50;1.30;;;11.20;99.90;;;;;;4143714;28;20032;-72
2022/12/20 02:34:58;;;;;;;3.05;1.55;;;11.20;99.90;;;;;;4142974;28;20038;-72
2022/12/20 02:36:59;;;;;;;2.50;1.48;;;11.20;99.90;;;;;;4142459;28;20133;-72
2022/12/20 02:39:00;;;;;;;2.97;1.30;;;11.10;99.90;;;;;;4144846;28;20062;-71
2022/12/20 02:41:13;;;;;;;2.40;1.70;;;11.20;99.90;;;;;;4142009;28;20063;-72
2022/12/20 02:45:35;;;;;;;3.40;1.50;;;11.20;99.90;;;;;;4139781;28;20399;-73
2022/12/20 02:47:41;;;;;;;2.25;1.20;;;11.20;99.90;;;;;;4143667;28;20392;-72
2022/12/20 02:49:43;;;;;;;2.72;1.33;;;11.20;99.90;;;;;;4144317;28;20045;-72
2022/12/20 02:51:47;;;;;;;2.65;1.50;;;11.10;99.90;;;;;;4143630;28;20058;-73
2022/12/20 02:53:48;;;;;;;1.27;1.08;;;11.20;99.90;;;;;;4143476;28;20042;-72
2022/12/20 02:56:11;;;;;;;2.00;1.25;;;11.20;99.90;;;;;;4143010;28;20038;-72
2022/12/20 02:58:23;;;;;;;3.40;1.50;;;11.10;99.90;;;;;;4141293;28;20084;-72
2022/12/20 03:00:24;;;;;;;2.90;1.40;;;11.10;99.90;;;;;;4141574;28;20037;-73
2022/12/20 03:02:26;;;;;;;1.73;1.20;;;11.10;99.90;;;;;;4144616;28;20400;-72
2022/12/20 03:04:29;;;;;;;2.20;1.23;;;11.10;99.90;;;;;;4144313;28;20068;-73
2022/12/20 03:06:30;;;;;;;2.42;1.40;;;11.10;99.90;;;;;;4143030;28;20041;-72
2022/12/20 03:08:31;;;;;;;3.17;1.40;;;11.10;99.90;;;;;;4144462;28;20038;-72
2022/12/20 03:10:31;;;;;;;4.13;1.65;;;11.00;99.90;;;;;;4114932;28;20046;-72
2022/12/20 03:12:32;;;;;;;3.08;1.67;;;11.00;99.90;;;;;;4111076;28;20134;-72
2022/12/20 03:14:32;;;;;;;3.28;1.58;;;10.90;99.90;;;;;;4140135;28;20045;-72
2022/12/20 03:16:33;;;;;;;2.55;1.52;;;10.90;99.90;;;;;;4143107;28;20061;-73
2022/12/20 03:18:33;;;;;;;3.55;1.90;;;10.90;99.90;;;;;;4144571;28;20057;-72
2022/12/20 03:20:34;;;;;;;2.95;1.88;;;10.90;99.90;;;;;;4143686;28;20045;-72
2022/12/20 03:22:35;;;;;;;4.97;1.70;;;10.80;99.90;;;;;;4144809;28;20034;-72
2022/12/20 03:24:35;;;;;;;3.30;1.60;;;10.80;99.90;;;;;;4144873;28;20038;-72
2022/12/20 03:26:36;;;;;;;3.53;1.77;;;10.80;99.90;;;;;;4142112;28;20042;-73
2022/12/20 03:28:37;;;;;;;2.53;1.52;;;10.70;99.90;;;;;;4145114;28;20052;-73
2022/12/20 03:30:37;;;;;;;3.67;1.40;;;10.70;99.90;;;;;;4143521;28;20104;-72
2022/12/20 03:32:38;;;;;;;3.63;1.60;;;10.70;99.90;;;;;;4144688;28;20045;-73
2022/12/20 03:34:38;;;;;;;3.05;1.70;;;10.70;99.90;;;;;;4144710;28;20041;-72
2022/12/20 03:36:39;;;;;;;5.43;1.95;;;10.70;99.90;;;;;;4142747;28;20042;-72
2022/12/20 03:38:39;;;;;;;3.05;1.63;;;10.70;99.90;;;;;;4144359;28;20117;-72
2022/12/20 03:40:40;;;;;;;4.53;2.05;;;10.70;99.90;;;;;;4141958;28;20032;-72
2022/12/20 03:42:41;;;;;;;3.28;1.90;;;10.60;99.90;;;;;;4159308;28;20046;-72
2022/12/20 03:44:42;;;;;;;4.72;1.88;;;10.60;99.90;;;;;;4158201;28;20029;-73
2022/12/20 03:46:42;;;;;;;7.22;2.10;;;10.70;99.90;;;;;;4142675;28;20045;-73
2022/12/20 03:48:43;;;;;;;3.53;1.65;;;10.70;99.90;;;;;;4144241;28;20084;-72
2022/12/20 03:50:43;;;;;;;4.22;1.70;;;10.70;99.90;;;;;;4143182;28;20056;-72
2022/12/20 03:52:44;;;;;;;2.28;1.55;;;10.70;99.90;;;;;;4144905;28;20113;-72
2022/12/20 03:54:44;;;;;;;3.88;1.60;;;10.70;99.90;;;;;;4147111;28;20041;-73
2022/12/20 03:56:45;;;;;;;2.72;1.55;;;10.70;99.90;;;;;;4147775;28;20437;-72
2022/12/20 03:58:46;;;;;;;6.35;2.00;;;10.70;99.90;;;;;;4150274;28;20076;-72
2022/12/20 04:00:46;;;;;;;3.42;1.90;;;10.70;99.90;;;;;;4154840;28;20045;-73
2022/12/20 04:02:47;;;;;;;5.32;2.08;;;10.60;99.90;;;;;;4147495;28;20033;-73
2022/12/20 04:04:48;;;;;;;4.63;2.22;;;10.70;99.90;;;;;;4147619;28;20046;-73
2022/12/20 04:06:48;;;;;;;2.97;1.65;;;10.60;99.90;;;;;;4145423;28;20051;-73
2022/12/20 04:08:49;;;;;;;6.65;2.05;;;10.60;99.90;;;;;;4146531;28;20041;-73
2022/12/20 04:13:08;;;;;;;5.97;2.20;;;10.50;99.90;;;;;;4147183;28;20050;-73
2022/12/20 04:15:09;;;;;;;4.88;2.17;;;10.50;99.90;;;;;;4146117;28;20447;-73
2022/12/20 04:17:10;;;;;;;2.58;1.85;;;10.40;99.90;;;;;;4144809;28;20594;-73
2022/12/20 04:19:10;;;;;;;3.83;2.20;;;10.40;99.90;;;;;;4147446;28;20045;-73
2022/12/20 04:21:12;;;;;;;5.00;1.95;;;10.40;99.90;;;;;;4146344;28;20511;-74
2022/12/20 04:23:12;;;;;;;2.63;1.80;;;10.40;99.90;;;;;;4145171;28;20034;-73
2022/12/20 04:25:17;;;;;;;4.82;2.03;;;10.40;99.90;;;;;;4145893;28;20096;-73
2022/12/20 04:27:18;;;;;;;4.30;1.92;;;10.40;99.90;;;;;;4146398;28;20396;-73
2022/12/20 04:29:18;;;;;;;4.22;1.90;;;10.40;99.90;;;;;;4147237;28;21769;-73
2022/12/20 04:31:19;;;;;;;3.63;2.00;;;10.40;99.90;;;;;;4146148;28;20037;-73
2022/12/20 04:33:20;;;;;;;3.65;2.00;;;10.30;99.90;;;;;;4147338;28;20052;-73
2022/12/20 04:35:21;;;;;;;5.57;2.53;;;10.40;99.90;;;;;;4145669;28;20061;-73
2022/12/20 04:37:21;;;;;;;4.57;2.05;;;10.30;99.90;;;;;;4144254;28;20518;-73
2022/12/20 04:39:22;;;;;;;3.80;2.20;;;10.30;99.90;;;;;;4146935;28;20068;-73
2022/12/20 04:41:22;;;;;;;4.15;2.08;;;10.30;99.90;;;;;;4145904;28;20030;-73
2022/12/20 04:43:24;;;;;;;3.00;2.10;;;10.30;99.90;;;;;;4146987;28;20065;-73
2022/12/20 04:45:24;;;;;;;3.75;1.85;;;10.40;99.90;;;;;;4145429;28;20038;-73
2022/12/20 04:47:25;;;;;;;3.65;2.25;;;10.30;99.90;;;;;;4145994;28;20097;-73
2022/12/20 04:49:25;;;;;;;5.18;2.45;;;10.30;99.90;;;;;;4146874;28;20046;-73
2022/12/20 04:51:27;;;;;;;5.10;2.22;;;10.30;99.90;;;;;;4147649;28;20034;-73
2022/12/20 04:55:47;;;;;;;4.00;2.35;;;10.30;99.90;;;;;;4144871;28;20045;-73
2022/12/20 04:57:47;;;;;;;5.50;2.40;;;10.30;99.90;;;;;;4146047;28;20442;-73
2022/12/20 04:59:48;;;;;;;5.90;2.60;;;10.20;99.90;;;;;;4146853;28;20061;-73
2022/12/20 05:01:48;;;;;;;6.25;2.53;;;10.20;99.90;;;;;;4143131;28;20030;-73
2022/12/20 05:03:50;;;;;;;5.18;2.38;;;10.20;99.90;;;;;;4145914;28;20058;-73
2022/12/20 05:05:51;;;;;;;3.60;2.15;;;10.10;99.90;;;;;;4144635;28;20038;-73
2022/12/20 05:07:52;;;;;;;4.40;2.50;;;10.20;99.90;;;;;;4147821;28;20520;-73
2022/12/20 05:09:53;;;;;;;3.45;2.42;;;10.20;99.90;;;;;;4154871;28;20551;-73
2022/12/20 05:11:53;;;;;;;2.78;1.80;;;10.10;99.90;;;;;;4144538;28;20831;-73
2022/12/20 05:13:54;;;;;;;6.03;2.58;;;10.20;99.90;;;;;;4153894;28;20025;-73
2022/12/20 05:15:56;;;;;;;4.13;2.25;;;10.20;99.90;;;;;;4152669;28;20044;-73
2022/12/20 05:17:58;;;;;;;5.43;2.78;;;10.20;99.90;;;;;;4155860;28;20552;-73
2022/12/20 05:19:59;;;;;;;5.13;2.35;;;10.10;99.90;;;;;;4145422;28;20034;-72
2022/12/20 05:26:39;;;;;;;3.75;2.38;;;10.10;99.90;;;;;;4140839;28;20500;-72
2022/12/20 05:28:39;;;;;;;4.43;2.00;;;10.10;99.90;;;;;;4154807;28;20072;-73
2022/12/20 05:30:40;;;;;;;7.97;2.70;;;10.10;99.90;;;;;;4156752;28;20029;-74
2022/12/20 05:32:41;;;;;;;4.50;2.58;;;10.00;99.90;;;;;;4152141;28;20362;-73
2022/12/20 05:34:41;;;;;;;6.15;2.70;;;10.10;99.90;;;;;;4156102;28;20056;-73
2022/12/20 05:36:42;;;;;;;3.60;2.03;;;10.00;99.90;;;;;;4146172;28;20049;-73
2022/12/20 05:38:42;;;;;;;5.97;2.65;;;10.10;99.90;;;;;;4151599;28;20034;-73
2022/12/20 05:40:45;;;;;;;4.13;2.90;;;10.00;99.90;;;;;;4160663;28;20033;-73
2022/12/20 05:42:46;;;;;;;4.53;2.40;;;10.00;99.90;;;;;;4159063;28;20049;-73
2022/12/20 05:44:46;;;;;;;5.30;2.80;;;10.00;99.90;;;;;;4162452;28;20111;-73
2022/12/20 05:46:47;;;;;;;4.57;2.88;;;10.10;99.90;;;;;;4147304;28;20128;-74
2022/12/20 05:48:48;;;;;;;6.63;2.47;;;10.10;99.90;;;;;;4139076;28;20105;-73
2022/12/20 05:50:48;;;;;;;10.70;3.00;;;10.10;99.90;;;;;;4145688;28;20112;-73
2022/12/20 05:52:49;;;;;;;10.02;3.38;;;10.10;99.90;;;;;;4145378;28;20085;-73
2022/12/20 05:54:49;;;;;;;7.55;3.30;;;10.10;99.90;;;;;;4146353;28;20062;-73
2022/12/20 05:56:50;;;;;;;6.65;3.65;;;10.10;99.90;;;;;;4142941;28;20050;-73
2022/12/20 05:58:51;;;;;;;8.57;4.00;;;10.10;99.90;;;;;;4157654;28;20034;-73
2022/12/20 06:00:51;;;;;;;6.25;3.47;;;10.00;99.90;;;;;;4144515;28;20058;-73
2022/12/20 06:02:52;;;;;;;18.75;10.93;;;10.10;99.90;;;;;;4143582;28;20038;-73
2022/12/20 06:04:52;;;;;;;9.68;6.28;;;10.10;99.90;;;;;;4144365;28;20034;-73
2022/12/20 06:06:53;;;;;;;8.77;4.72;;;10.10;99.90;;;;;;4143164;28;20741;-73
2022/12/20 06:08:55;;;;;;;8.20;3.60;;;10.10;99.90;;;;;;4143607;28;20500;-73
2022/12/20 06:10:55;;;;;;;7.43;3.70;;;10.10;99.90;;;;;;4144342;28;20046;-73
2022/12/20 06:12:56;;;;;;;6.05;3.20;;;10.10;99.90;;;;;;4142557;28;20076;-73
2022/12/20 06:14:56;;;;;;;5.95;3.45;;;10.10;99.90;;;;;;4144685;28;20037;-73
2022/12/20 06:16:57;;;;;;;4.85;3.15;;;10.00;99.90;;;;;;4143497;28;20048;-73
2022/12/20 06:18:57;;;;;;;7.13;3.63;;;10.10;99.90;;;;;;4154937;28;20026;-73
2022/12/20 06:20:58;;;;;;;5.07;3.13;;;10.10;99.90;;;;;;4143033;28;20030;-73
2022/12/20 06:22:59;;;;;;;6.40;3.42;;;10.00;99.90;;;;;;4139274;28;20032;-72
2022/12/20 06:24:59;;;;;;;7.93;3.17;;;10.00;99.90;;;;;;4145028;28;20065;-72
2022/12/20 06:27:01;;;;;;;6.40;3.42;;;10.00;99.90;;;;;;4144670;28;20088;-72
2022/12/20 06:29:03;;;;;;;5.38;3.50;;;10.00;99.90;;;;;;4141031;28;20385;-74
2022/12/20 06:31:04;;;;;;;11.57;4.13;;;10.00;99.90;;;;;;4144085;28;20129;-72
2022/12/20 06:33:04;;;;;;;7.18;3.70;;;10.00;99.90;;;;;;4144300;28;20062;-73
2022/12/20 06:35:05;;;;;;;5.88;3.00;;;10.00;99.90;;;;;;4143875;28;20032;-73
2022/12/20 06:37:05;;;;;;;5.57;3.28;;;10.00;99.90;;;;;;4139807;28;20096;-73
2022/12/20 06:39:08;;;;;;;7.32;3.10;;;10.00;99.90;;;;;;4143784;28;20038;-73
2022/12/20 06:41:08;;;;;;;5.30;3.30;;;10.10;99.90;;;;;;4151713;28;20038;-73
2022/12/20 06:43:09;;;;;;;4.25;3.08;;;10.10;99.90;;;;;;4145057;28;20370;-73
2022/12/20 06:45:10;;;;;;;7.22;3.72;;;10.10;99.90;;;;;;4142107;28;20038;-73
2022/12/20 06:47:10;;;;;;;7.68;3.10;;;10.10;99.90;;;;;;4142842;28;20026;-73
2022/12/20 06:49:11;;;;;;;7.32;3.47;;;10.10;99.90;;;;;;4144915;28;20080;-73
2022/12/20 06:51:11;;;;;;;9.55;3.75;;;10.10;99.90;;;;;;4154729;28;20039;-73
2022/12/20 06:53:12;;;;;;;3.97;2.67;;;10.10;99.90;;;;;;4156835;28;20046;-74
2022/12/20 06:55:13;;;;;;;7.90;3.05;;;10.10;99.90;;;;;;4149666;28;20451;-74
2022/12/20 06:57:13;;;;;;;4.50;2.83;;;10.10;99.90;;;;;;4143326;28;20412;-73
2022/12/20 06:59:14;;;;;;;7.32;3.20;;;10.10;99.90;;;;;;4148039;28;20045;-73
2022/12/20 07:01:15;;;;;;;7.97;3.08;;;10.10;99.90;;;;;;4145291;28;20041;-74
2022/12/20 07:03:15;;;;;;;6.43;2.78;;;10.20;99.90;;;;;;4148068;28;20034;-73
2022/12/20 07:05:16;;;;;;;4.75;2.95;;;10.20;99.90;;;;;;4142434;28;20030;-74
2022/12/20 07:07:17;;;;;;;5.72;3.08;;;10.20;99.90;;;;;;4142397;28;20051;-73
2022/12/20 07:09:17;;;;;;;4.22;2.60;;;10.20;99.90;;;;;;4144439;28;20045;-73
2022/12/20 07:11:18;;;;;;;6.93;2.97;;;10.20;99.90;;;;;;4140131;28;20076;-77
2022/12/20 07:13:19;;;;;;;7.10;2.88;;;10.20;99.90;;;;;;4154603;28;20037;-77
2022/12/20 07:15:21;;;;;;;5.50;2.33;;;10.20;99.90;;;;;;4147372;28;20038;-77
2022/12/20 07:17:21;;;;;;;7.45;2.88;;;10.20;99.90;;;;;;4147346;28;20476;-78
2022/12/20 07:19:22;;;;;;;3.72;2.25;;;10.20;99.90;;;;;;4155987;28;20128;-78
2022/12/20 07:21:22;;;;;;;4.45;2.45;;;10.20;99.90;;;;;;4153892;28;20038;-78
2022/12/20 07:23:23;;;;;;;7.53;2.38;;;10.20;99.90;;;;;;4160405;28;20087;-78
2022/12/20 07:25:24;;;;;;;5.70;2.75;;;10.20;99.90;;;;;;4149628;28;20539;-78
2022/12/20 07:27:24;;;;;;;5.70;2.85;;;10.20;99.90;;;;;;4144388;28;20520;-77
2022/12/20 07:29:25;;;;;;;8.27;2.60;;;10.20;99.90;;;;;;4154486;28;20072;-78
2022/12/20 07:31:26;;;;;;;8.60;2.92;;;10.20;99.90;;;;;;4144384;28;20034;-78
2022/12/20 07:33:26;;;;;;;8.50;3.05;;;10.20;99.90;;;;;;4146708;28;20488;-78
2022/12/20 07:35:27;;;;;;;4.90;2.78;;;10.20;99.90;;;;;;4142421;28;20416;-77
2022/12/20 07:37:28;;;;;;;5.25;2.53;;;10.20;99.90;;;;;;4142564;28;20034;-78
2022/12/20 07:39:29;;;;;;;5.10;2.90;;;10.30;99.90;;;;;;4143320;28;20420;-77
2022/12/20 07:41:30;;;;;;;3.95;2.30;;;10.30;99.90;;;;;;4144731;28;20057;-77
2022/12/20 07:43:30;;;;;;;4.55;2.42;;;10.30;99.90;;;;;;4143945;28;20034;-77
2022/12/20 07:45:31;;;;;;;4.07;2.25;;;10.30;99.90;;;;;;4136124;28;20069;-77
2022/12/20 07:47:34;;;;;;;5.72;2.42;;;10.30;99.90;;;;;;4140259;28;20077;-77
2022/12/20 07:49:34;;;;;;;4.70;2.72;;;10.30;99.90;;;;;;4140017;28;20512;-75
2022/12/20 07:51:40;;;;;;;3.78;1.90;;;10.30;99.90;;;;;;4141402;28;20045;-76
2022/12/20 07:53:47;;;;;;;4.78;2.05;;;10.30;99.90;;;;;;4140931;28;20076;-77
2022/12/20 07:55:48;;;;;;;5.32;2.60;;;10.30;99.90;;;;;;4136000;28;20455;-78
2022/12/20 07:57:54;;;;;;;5.47;2.50;;;10.30;99.90;;;;;;4143286;28;20054;-77
2022/12/20 07:59:57;;;;;;;6.45;2.72;;;10.30;99.90;;;;;;4126477;28;20124;-77
2022/12/20 08:01:59;;;;;;;3.72;2.38;;;10.30;99.90;;;;;;4136918;28;20038;-77
2022/12/20 08:04:07;;;;;;;5.00;2.15;;;10.30;99.90;;;;;;4129747;28;20796;-77
2022/12/20 08:06:08;;;;;;;9.40;2.70;;;10.30;99.90;;;;;;4136103;28;20540;-77
2022/12/20 08:08:08;;;;;;;6.22;2.45;;;10.30;99.90;;;;;;4134800;28;20061;-76
2022/12/20 08:10:11;;;;;;;6.55;2.67;;;10.30;99.90;;;;;;4132255;28;20050;-76
2022/12/20 08:12:14;;;;;;;5.03;2.17;;;10.30;99.90;;;;;;4132649;28;20149;-77
2022/12/20 08:14:17;;;;;;;4.00;2.30;;;10.40;99.90;;;;;;4137579;28;20089;-77
2022/12/20 08:16:17;;;;;;;5.28;2.20;;;10.40;99.90;;;;;;4124855;28;20050;-77
2022/12/20 08:18:18;;;;;;;5.35;2.20;;;10.40;99.90;;;;;;4134736;28;20112;-77
2022/12/20 08:20:19;;;;;;;4.80;2.55;;;10.40;99.90;;;;;;4135595;28;20073;-77
2022/12/20 08:22:20;;;;;;;8.43;2.60;;;10.40;99.90;;;;;;4130686;28;20474;-77
2022/12/20 08:24:20;;;;;;;5.18;2.22;;;10.40;99.90;;;;;;4166138;28;20416;-77
2022/12/20 08:26:21;;;;;;;7.95;2.50;;;10.40;99.90;;;;;;4134197;28;20053;-76
2022/12/20 08:28:22;;;;;;;6.03;2.78;;;10.40;99.90;;;;;;4138470;28;20034;-77
2022/12/20 08:30:23;;;;;;;7.05;2.78;;;10.40;99.90;;;;;;4142808;28;20041;-77
2022/12/20 08:32:24;;;;;;;5.03;2.53;;;10.40;99.90;;;;;;4131423;28;20385;-76
2022/12/20 08:34:24;;;;;;;3.25;2.10;;;10.40;99.90;;;;;;4140416;28;20045;-76
2022/12/20 08:36:25;;;;;;;5.47;2.35;;;10.40;99.90;;;;;;4127568;28;20046;-77
2022/12/20 08:38:27;;;;;;;4.68;2.08;;;10.40;99.90;;;;;;4137855;28;20161;-77
2022/12/20 08:40:28;;;;;;;6.38;2.28;;;10.40;99.90;;;;;;4128664;28;20244;-76
2022/12/20 08:42:28;;;;;;;5.70;2.70;;;10.50;99.90;;;;;;4135553;28;20053;-76
2022/12/20 08:44:29;;;;;;;4.78;2.40;;;10.50;99.90;;;;;;4129216;28;20045;-77
2022/12/20 08:46:29;;;;;;;7.32;3.30;;;10.50;99.90;;;;;;4136424;28;20096;-76
2022/12/20 08:48:31;;;;;;;2.90;2.03;;;10.50;99.90;;;;;;4136367;28;20026;-76
2022/12/20 08:50:31;;;;;;;2.72;2.08;;;10.50;99.90;;;;;;4135779;28;20409;-76
2022/12/20 08:52:32;;;;;;;4.40;1.95;;;10.50;99.90;;;;;;4132206;28;20041;-77
2022/12/20 08:54:33;;;;;;;4.00;2.00;;;10.50;99.90;;;;;;4130780;28;20040;-76
2022/12/20 08:56:33;;;;;;;4.75;2.58;;;10.50;99.90;;;;;;4137854;28;20042;-72
2022/12/20 08:58:35;;;;;;;4.35;1.90;;;10.60;99.90;;;;;;4130472;28;20058;-76
2022/12/20 09:00:36;;;;;;;2.65;1.75;;;10.60;99.90;;;;;;4133752;28;20500;-76
2022/12/20 09:02:37;;;;;;;3.47;2.00;;;10.60;99.90;;;;;;4131440;28;20034;-75
2022/12/20 09:04:37;;;;;;;5.65;2.20;;;10.60;99.90;;;;;;4124633;28;20053;-77
2022/12/20 09:06:38;;;;;;;5.97;2.35;;;10.60;99.90;;;;;;4135601;28;20069;-78
2022/12/20 09:08:39;;;;;;;3.92;2.25;;;10.60;99.90;;;;;;4128068;28;20054;-79
2022/12/20 09:10:39;;;;;;;5.18;2.35;;;10.60;99.90;;;;;;4127405;28;20370;-78
2022/12/20 09:12:40;;;;;;;3.95;2.40;;;10.70;99.90;;;;;;4136053;28;20058;-79
2022/12/20 09:14:40;;;;;;;5.05;2.00;;;10.70;99.90;;;;;;4138732;28;20065;-79
2022/12/20 09:16:41;;;;;;;4.40;2.03;;;10.70;99.90;;;;;;4130940;28;20061;-78
2022/12/20 09:18:42;;;;;;;5.95;2.08;;;10.70;99.90;;;;;;4136180;28;20038;-78
2022/12/20 09:20:44;;;;;;;5.65;2.22;;;10.70;99.90;;;;;;4137365;28;20087;-79
2022/12/20 09:22:44;;;;;;;4.33;2.27;;;10.70;99.90;;;;;;4132377;28;20104;-79
2022/12/20 09:24:45;;;;;;;7.45;2.40;;;10.70;99.90;;;;;;4139090;28;21081;-79
2022/12/20 09:26:46;;;;;;;5.25;2.22;;;10.80;99.90;;;;;;4133635;28;20047;-79
2022/12/20 09:28:47;;;;;;;4.15;2.13;;;10.80;99.90;;;;;;4140570;28;20057;-80
2022/12/20 09:30:48;;;;;;;5.88;2.28;;;10.80;99.90;;;;;;4133988;28;20030;-79
2022/12/20 09:32:49;;;;;;;4.93;2.30;;;10.80;99.90;;;;;;4133381;28;20128;-80
2022/12/20 09:34:49;;;;;;;6.43;2.05;;;10.80;99.90;;;;;;4136870;28;20034;-79
2022/12/20 09:36:50;;;;;;;5.28;2.50;;;10.90;99.90;;;;;;4135477;28;20073;-80
2022/12/20 09:38:51;;;;;;;6.60;2.22;;;10.90;99.90;;;;;;4135093;28;20117;-78
2022/12/20 09:41:06;;;;;;;5.10;2.10;;;10.90;99.90;;;;;;4131242;28;20039;-80
2022/12/20 09:43:08;;;;;;;3.42;2.08;;;10.80;99.90;;;;;;4134037;28;20049;-78
2022/12/20 09:45:18;;;;;;;3.85;2.03;;;10.80;99.90;;;;;;4136304;28;20448;-79
2022/12/20 09:47:23;;;;;;;3.47;2.13;;;10.90;99.90;;;;;;4134670;28;20050;-79
2022/12/20 09:49:28;;;;;;;5.55;2.25;;;10.80;99.90;;;;;;4135804;28;22643;-79
2022/12/20 09:51:59;;;;;;;6.28;2.90;;;10.80;99.90;;;;;;4132946;28;20088;-79
2022/12/20 09:54:17;;;;;;;4.50;2.28;;;10.80;99.90;;;;;;4136992;28;20056;-80
2022/12/20 09:56:39;;;;;;;3.55;2.20;;;10.80;99.90;;;;;;4122957;28;20039;-80
2022/12/20 09:58:57;;;;;;;6.45;2.10;;;10.80;99.90;;;;;;4139585;28;20049;-80
2022/12/20 10:00:58;;;;;;;5.15;1.88;;;10.80;99.90;;;;;;4125664;28;20030;-80
2022/12/20 10:03:02;;;;;;;6.30;2.20;;;10.80;99.90;;;;;;4134987;28;20034;-80
2022/12/20 10:05:03;;;;;;;2.78;2.17;;;10.80;99.90;;;;;;4134417;28;20424;-80
2022/12/20 10:07:19;;;;;;;6.75;2.30;;;10.80;99.90;;;;;;4137407;28;20065;-79
2022/12/20 10:09:28;;;;;;;4.40;2.20;;;10.80;99.90;;;;;;4131160;28;20042;-80
2022/12/20 10:11:39;;;;;;;3.63;2.20;;;10.90;99.90;;;;;;4132967;28;20058;-81
2022/12/20 10:14:12;;;;;;;4.80;2.20;;;10.90;99.90;;;;;;4131680;28;20117;-82
2022/12/20 10:16:28;;;;;;;;;;;10.90;99.90;;;;;;4129869;28;20404;-81
2022/12/20 10:18:52;;;;;;;3.28;2.05;;;10.90;99.90;;;;;;4129733;28;20345;-81
2022/12/20 10:21:06;;;;;;;5.18;2.35;;;10.90;99.90;;;;;;4130029;28;20116;-82
2022/12/20 10:23:24;;;;;;;6.43;2.17;;;10.90;99.90;;;;;;4129156;28;20089;-78
2022/12/20 10:25:31;;;;;;;4.35;2.08;;;10.90;99.90;;;;;;4129191;28;20038;-82
2022/12/20 10:27:36;;;;;;;6.13;2.20;;;10.90;99.90;;;;;;4138815;28;20128;-83
2022/12/20 10:29:37;;;;;;;4.07;1.80;;;10.90;99.90;;;;;;4134284;28;20413;-78
2022/12/20 10:31:38;;;;;;;4.75;2.00;;;10.90;99.90;;;;;;4141314;28;20026;-81
2022/12/20 10:33:39;;;;;;;5.45;2.30;;;10.90;99.90;;;;;;4137933;28;20382;-82
2022/12/20 10:35:42;;;;;;;6.35;2.40;;;11.00;99.90;;;;;;4139510;28;20073;-81
2022/12/20 10:38:12;;;;;;;6.25;2.70;;;11.00;99.90;;;;;;4141088;28;20071;-83
2022/12/20 10:40:32;;;;;;;5.50;2.38;;;11.00;99.90;;;;;;4123164;28;20061;-83
2022/12/20 10:42:42;;;;;;;3.92;1.98;;;11.00;99.90;;;;;;4133131;28;20473;-83
2022/12/20 10:44:43;;;;;;;6.05;1.90;;;11.00;99.90;;;;;;4133600;28;20674;-83
2022/12/20 10:46:55;;;;;;;5.85;2.40;;;11.00;99.90;;;;;;4140068;28;20046;-83
2022/12/20 10:48:56;;;;;;;4.85;1.98;;;11.00;99.90;;;;;;4139197;28;20041;-83
2022/12/20 10:51:01;;;;;;;5.18;2.30;;;11.10;99.90;;;;;;4141155;28;20426;-84
2022/12/20 10:53:10;;;;;;;5.32;2.08;;;11.10;99.90;;;;;;4140557;28;20088;-82